Strona główna
METAR-TAF:

METAR-TAF

Lotnisko :

Port lotniczy Port-Gentil

Port-Gentil, Gabon

Szerokość geograficzna: 00-42S, Długość geograficzna: 008-45E, wysokość: 3 m

Aktualna obserwacja pogody

Raport powstał 2 godziny i 51 minut temu, godzina 15:30 UTC
Temperatura 26°C
Wilgotność 74%
Ciśnienie 1013 hPa
Widzialność 10 km lub więcej
Rozproszone chmury na wysokości 1000 ft
Przerywane chmury na wysokości 3300 ft

METAR: FOOG 201530Z /////KT 9999 SCT010 BKN033 26/21 Q1013

czas: 19:21 (18:21 UTC)

Prognoza

Raport powstał 1 godzina i 21 minut temu, godzina 17:00 UTC
Prognoza ważna od 20 godzina 18 UTC do 21 godzina 18 UTC
Wiatr 8 kt od południe
Widzialność 10 km lub więcej
Rozproszone chmury na wysokości 1000 ft
Przerywane chmury na wysokości 3000 ft

TAF: FOOG 201700Z 2018/2118 19008KT 9999 SCT010 BKN030

Obserwacja i prognoza pogody dla ponad 4000 lotnisk (raport METAR i TAF).

Dostępne stacje oznaczono żółtymi i czerwonymi punktami na mapie.

Najedź kursorem aby zobaczyć nazwę stacji.

Kliknij aby zobaczyć obserwacje i prognozy pogody.

Aby zmienić mapę: kliknij na zielony przycisk z czarnym krzyżykiem, aby powiększyć; na zielony przycisk z myślnikiem, aby pomniejszyć; na zielone strzałki, aby przejść do map sąsiednich.


METAR-TAF: